createdAt,value
2018-05-04T00:00:19.708Z,15.40
2018-05-04T00:00:52.977Z,15.50
2018-05-04T00:01:26.237Z,15.50
2018-05-04T00:01:59.511Z,15.40
2018-05-04T00:02:32.772Z,15.30
2018-05-04T00:03:06.057Z,15.40
2018-05-04T00:03:39.315Z,15.40
2018-05-04T00:04:12.585Z,15.40
2018-05-04T00:04:45.870Z,15.40
2018-05-04T00:05:19.132Z,15.40
2018-05-04T00:05:52.398Z,15.40
2018-05-04T00:06:25.660Z,15.30
2018-05-04T00:06:59.700Z,15.40
2018-05-04T00:07:32.964Z,15.40
2018-05-04T00:08:06.247Z,15.40
2018-05-04T00:08:39.510Z,15.40
2018-05-04T00:09:13.528Z,15.30
2018-05-04T00:09:46.797Z,15.30
2018-05-04T00:10:20.084Z,15.30
2018-05-04T00:10:53.344Z,15.20
2018-05-04T00:11:26.605Z,15.10
2018-05-04T00:11:59.866Z,15.20
2018-05-04T00:12:33.207Z,15.20
2018-05-04T00:13:06.500Z,15.20
2018-05-04T00:13:39.765Z,15.10
2018-05-04T00:14:13.011Z,15.10
2018-05-04T00:14:46.288Z,15.10
2018-05-04T00:15:20.315Z,15.10
2018-05-04T00:15:53.605Z,15.10
2018-05-04T00:16:26.866Z,15.00
2018-05-04T00:17:00.904Z,15.10
2018-05-04T00:17:34.152Z,15.10
2018-05-04T00:18:07.433Z,15.20
2018-05-04T00:18:40.691Z,15.10
2018-05-04T00:19:14.745Z,15.20
2018-05-04T00:19:48.013Z,15.20
2018-05-04T00:20:21.263Z,15.20
2018-05-04T00:20:54.549Z,15.20
2018-05-04T00:21:27.812Z,15.20
2018-05-04T00:22:01.081Z,15.20
2018-05-04T00:22:34.340Z,15.20
2018-05-04T00:23:07.645Z,15.20
2018-05-04T00:23:41.692Z,15.10
2018-05-04T00:24:14.968Z,15.10
2018-05-04T00:24:48.231Z,15.10
2018-05-04T00:25:21.482Z,15.10
2018-05-04T00:25:55.537Z,15.10
2018-05-04T00:26:29.322Z,15.10
2018-05-04T00:27:02.596Z,15.00
2018-05-04T00:27:35.856Z,15.00
2018-05-04T00:28:09.125Z,15.00
2018-05-04T00:28:43.165Z,15.00
2018-05-04T00:29:16.447Z,15.00
2018-05-04T00:29:49.704Z,15.00
2018-05-04T00:30:22.970Z,15.00
2018-05-04T00:30:56.230Z,14.90
2018-05-04T00:31:30.284Z,14.90
2018-05-04T00:32:03.543Z,14.90
2018-05-04T00:32:36.819Z,14.90
2018-05-04T00:33:10.102Z,14.90
2018-05-04T00:33:43.391Z,14.90
2018-05-04T00:34:16.676Z,14.90
2018-05-04T00:34:49.945Z,14.90
2018-05-04T00:35:23.216Z,14.90
2018-05-04T00:35:56.476Z,14.80
2018-05-04T00:36:30.514Z,14.80
2018-05-04T00:37:03.774Z,14.80
2018-05-04T00:37:37.045Z,14.90
2018-05-04T00:38:10.313Z,14.90
2018-05-04T00:38:43.590Z,14.90
2018-05-04T00:39:17.628Z,14.90
2018-05-04T00:39:50.889Z,14.90
2018-05-04T00:40:24.159Z,14.90
2018-05-04T00:40:58.252Z,14.90
2018-05-04T00:41:31.516Z,14.90
2018-05-04T00:42:04.786Z,14.90
2018-05-04T00:42:38.112Z,14.90
2018-05-04T00:43:11.368Z,15.00
2018-05-04T00:43:44.650Z,15.00
2018-05-04T00:44:18.689Z,15.00
2018-05-04T00:44:51.956Z,15.00
2018-05-04T00:45:25.211Z,15.00
2018-05-04T00:45:59.261Z,15.00
2018-05-04T00:46:32.513Z,15.00
2018-05-04T00:47:05.769Z,15.00
2018-05-04T00:47:39.801Z,15.00
2018-05-04T00:48:13.832Z,15.00
2018-05-04T00:48:47.114Z,15.00
2018-05-04T00:49:20.379Z,15.00
2018-05-04T00:49:53.663Z,15.00
2018-05-04T00:50:26.932Z,15.00
2018-05-04T00:51:00.625Z,15.00
2018-05-04T00:51:33.901Z,15.00
2018-05-04T00:52:07.165Z,14.90
2018-05-04T00:52:40.420Z,14.90
2018-05-04T00:53:13.685Z,14.90
2018-05-04T00:53:58.949Z,14.90
2018-05-04T00:54:32.973Z,14.90
2018-05-04T00:55:06.252Z,14.80
2018-05-04T00:55:39.515Z,14.90
2018-05-04T00:56:12.781Z,14.90
2018-05-04T00:56:46.812Z,14.90
2018-05-04T00:57:20.100Z,14.90
2018-05-04T00:57:53.364Z,14.90
2018-05-04T00:58:26.633Z,14.90
2018-05-04T00:59:00.700Z,14.80
2018-05-04T00:59:33.969Z,14.80
2018-05-04T01:00:07.249Z,14.90
2018-05-04T01:00:40.504Z,14.90
2018-05-04T01:01:14.710Z,14.90
2018-05-04T01:01:47.977Z,14.90
2018-05-04T01:02:21.234Z,14.90
2018-05-04T01:02:55.271Z,14.90
2018-05-04T01:03:28.537Z,14.90
2018-05-04T01:04:01.909Z,14.90
2018-05-04T01:04:35.177Z,14.90
2018-05-04T01:05:08.437Z,14.90
2018-05-04T01:05:41.700Z,14.90
2018-05-04T01:06:14.976Z,14.90
2018-05-04T01:06:48.243Z,14.90
2018-05-04T01:07:21.540Z,14.90
2018-05-04T01:07:54.807Z,14.90
2018-05-04T01:08:28.086Z,14.90
2018-05-04T01:09:01.347Z,14.90
2018-05-04T01:09:34.623Z,14.90
2018-05-04T01:10:07.905Z,14.90
2018-05-04T01:10:41.182Z,14.90
2018-05-04T01:11:14.453Z,15.00
2018-05-04T01:11:48.043Z,15.00
2018-05-04T01:12:21.291Z,15.00
2018-05-04T01:12:55.336Z,15.00
2018-05-04T01:13:28.597Z,15.00
2018-05-04T01:14:01.862Z,15.00
2018-05-04T01:14:35.910Z,15.00
2018-05-04T01:15:09.185Z,15.00
2018-05-04T01:15:43.231Z,14.90
2018-05-04T01:16:17.269Z,14.90
2018-05-04T01:16:50.525Z,14.90
2018-05-04T01:17:23.780Z,14.90
2018-05-04T01:17:57.817Z,14.90
2018-05-04T01:18:31.089Z,14.90
2018-05-04T01:19:04.364Z,14.90
2018-05-04T01:19:38.396Z,15.00
2018-05-04T01:20:11.652Z,14.90
2018-05-04T01:20:44.913Z,15.00
2018-05-04T01:21:18.189Z,14.90
2018-05-04T01:21:51.464Z,14.90
2018-05-04T01:22:25.489Z,14.90
2018-05-04T01:22:58.744Z,14.90
2018-05-04T01:23:32.781Z,14.90
2018-05-04T01:24:06.038Z,14.90
2018-05-04T01:24:39.308Z,14.90
2018-05-04T01:25:12.580Z,14.90
2018-05-04T01:25:46.606Z,15.00
2018-05-04T01:26:19.869Z,14.90
2018-05-04T01:26:53.137Z,15.00
2018-05-04T01:27:27.168Z,15.00
2018-05-04T01:28:00.437Z,15.00
2018-05-04T01:28:33.702Z,15.00
2018-05-04T01:29:07.727Z,14.90
2018-05-04T01:29:41.039Z,14.90
2018-05-04T01:30:14.303Z,14.90
2018-05-04T01:30:47.561Z,14.90
2018-05-04T01:31:20.822Z,14.90
2018-05-04T01:31:54.080Z,15.00
2018-05-04T01:32:27.794Z,14.90
2018-05-04T01:33:01.029Z,15.00
2018-05-04T01:33:34.279Z,14.90
2018-05-04T01:34:07.536Z,14.90
2018-05-04T01:34:40.808Z,14.90
2018-05-04T01:35:14.065Z,14.90
2018-05-04T01:35:48.096Z,14.90
2018-05-04T01:36:21.357Z,14.90
2018-05-04T01:36:55.384Z,14.90
2018-05-04T01:37:28.661Z,14.90
2018-05-04T01:38:01.929Z,14.90
2018-05-04T01:38:35.184Z,14.90
2018-05-04T01:39:09.217Z,14.90
2018-05-04T01:39:42.535Z,14.90
2018-05-04T01:40:15.773Z,14.90
2018-05-04T01:40:49.036Z,14.90
2018-05-04T01:41:23.056Z,14.90
2018-05-04T01:41:56.315Z,14.90
2018-05-04T01:42:29.591Z,15.00
2018-05-04T01:43:02.886Z,15.00
2018-05-04T01:43:36.148Z,15.00
2018-05-04T01:44:09.416Z,15.00
2018-05-04T01:44:43.459Z,14.90
2018-05-04T01:45:16.728Z,14.90
2018-05-04T01:45:50.361Z,14.90
2018-05-04T01:46:23.594Z,14.90
2018-05-04T01:46:56.856Z,14.90
2018-05-04T01:47:30.124Z,14.90
2018-05-04T01:48:04.152Z,14.80
2018-05-04T01:48:37.431Z,14.80
2018-05-04T01:49:10.697Z,14.90
2018-05-04T01:49:44.727Z,14.80
2018-05-04T01:50:17.981Z,14.80
2018-05-04T01:50:51.246Z,14.90
2018-05-04T01:51:25.289Z,14.90
2018-05-04T01:51:58.577Z,14.90
2018-05-04T01:52:31.860Z,14.90
2018-05-04T01:53:05.503Z,14.90
2018-05-04T01:53:38.845Z,14.90
2018-05-04T01:54:12.129Z,14.90
2018-05-04T01:54:45.406Z,14.80
2018-05-04T01:55:18.680Z,14.80
2018-05-04T01:55:51.941Z,14.80
2018-05-04T01:56:25.199Z,14.80
2018-05-04T01:56:58.458Z,14.80
2018-05-04T01:57:32.480Z,14.80
2018-05-04T01:58:05.742Z,14.70
2018-05-04T01:58:39.770Z,14.80
2018-05-04T01:59:13.044Z,14.80
2018-05-04T01:59:46.332Z,14.70
2018-05-04T02:00:19.595Z,14.70
2018-05-04T02:00:52.877Z,14.70
2018-05-04T02:01:26.160Z,14.70
2018-05-04T02:01:59.428Z,14.70
2018-05-04T02:02:32.688Z,14.70
2018-05-04T02:03:06.725Z,14.80
2018-05-04T02:03:39.984Z,14.80
2018-05-04T02:04:13.240Z,14.70
2018-05-04T02:04:47.303Z,14.70
2018-05-04T02:05:20.589Z,14.70
2018-05-04T02:05:53.866Z,14.70
2018-05-04T02:06:27.140Z,14.70
2018-05-04T02:07:00.428Z,14.70
2018-05-04T02:07:33.710Z,14.70
2018-05-04T02:08:06.980Z,14.70
2018-05-04T02:08:40.238Z,14.70
2018-05-04T02:09:13.518Z,14.70
2018-05-04T02:09:46.804Z,14.60
2018-05-04T02:10:20.057Z,14.60
2018-05-04T02:10:54.096Z,14.60
2018-05-04T02:11:27.361Z,14.60
2018-05-04T02:12:00.632Z,14.60
2018-05-04T02:12:33.908Z,14.70
2018-05-04T02:13:07.158Z,14.70
2018-05-04T02:13:41.180Z,14.60
2018-05-04T02:14:18.400Z,14.60
2018-05-04T02:14:51.642Z,14.60
2018-05-04T02:15:24.909Z,14.60
2018-05-04T02:15:58.941Z,14.60
2018-05-04T02:16:32.238Z,14.60
2018-05-04T02:17:05.479Z,14.60
2018-05-04T02:17:38.757Z,14.60
2018-05-04T02:18:12.019Z,14.60
2018-05-04T02:18:45.319Z,14.60
2018-05-04T02:19:18.571Z,14.50
2018-05-04T02:19:52.600Z,14.50
2018-05-04T02:20:25.857Z,14.50
2018-05-04T02:20:59.886Z,14.50
2018-05-04T02:21:33.149Z,14.50
2018-05-04T02:22:06.407Z,14.50
2018-05-04T02:22:40.428Z,14.50
2018-05-04T02:23:13.684Z,14.40
2018-05-04T02:23:46.953Z,14.40
2018-05-04T02:24:20.212Z,14.50
2018-05-04T02:24:53.484Z,14.40
2018-05-04T02:25:26.776Z,14.50
2018-05-04T02:26:00.049Z,14.50
2018-05-04T02:26:33.322Z,14.50
2018-05-04T02:27:06.576Z,14.40
2018-05-04T02:27:39.824Z,14.40
2018-05-04T02:28:13.866Z,14.40
2018-05-04T02:28:47.126Z,14.40
2018-05-04T02:29:20.370Z,14.40
2018-05-04T02:29:54.493Z,14.40
2018-05-04T02:30:27.768Z,14.40
2018-05-04T02:31:01.796Z,14.50
2018-05-04T02:31:35.052Z,14.50
2018-05-04T02:32:08.346Z,14.50
2018-05-04T02:32:42.355Z,14.40
2018-05-04T02:33:15.629Z,14.40
2018-05-04T02:33:48.888Z,14.30
2018-05-04T02:34:22.144Z,14.30
2018-05-04T02:34:56.138Z,14.30
2018-05-04T02:35:29.949Z,14.40
2018-05-04T02:36:03.204Z,14.40
2018-05-04T02:36:36.473Z,14.40
2018-05-04T02:37:09.756Z,14.40
2018-05-04T02:37:43.037Z,14.30
2018-05-04T02:38:16.404Z,14.30
2018-05-04T02:38:49.651Z,14.30
2018-05-04T02:39:22.908Z,14.30
2018-05-04T02:39:56.951Z,14.30
2018-05-04T02:40:30.245Z,14.30
2018-05-04T02:41:03.519Z,14.30
2018-05-04T02:41:36.803Z,14.30
2018-05-04T02:42:10.078Z,14.30
2018-05-04T02:42:43.342Z,14.30
2018-05-04T02:43:16.597Z,14.30
2018-05-04T02:43:49.877Z,14.40
2018-05-04T02:44:23.155Z,14.30
2018-05-04T02:44:57.189Z,14.30
2018-05-04T02:45:30.472Z,14.30
2018-05-04T02:46:03.749Z,14.30
2018-05-04T02:46:37.025Z,14.30
2018-05-04T02:47:10.286Z,14.30
2018-05-04T02:47:43.552Z,14.30
2018-05-04T02:48:16.815Z,14.20
2018-05-04T02:48:50.840Z,14.20
2018-05-04T02:49:24.109Z,14.20
2018-05-04T02:49:57.386Z,14.20
2018-05-04T02:50:31.427Z,14.20
2018-05-04T02:51:04.688Z,14.20
2018-05-04T02:51:37.962Z,14.30
2018-05-04T02:52:11.237Z,14.20
2018-05-04T02:52:44.472Z,14.20
2018-05-04T02:53:17.750Z,14.20
2018-05-04T02:53:51.018Z,14.20
2018-05-04T02:54:24.273Z,14.10
2018-05-04T02:54:57.551Z,14.10
2018-05-04T02:55:30.839Z,14.10
2018-05-04T02:56:04.082Z,14.10
2018-05-04T02:56:38.109Z,14.10
2018-05-04T02:57:11.365Z,14.10
2018-05-04T02:57:44.634Z,14.20
2018-05-04T02:58:17.889Z,14.10
2018-05-04T02:58:51.148Z,14.20
2018-05-04T02:59:24.424Z,14.20
2018-05-04T02:59:57.702Z,14.20
2018-05-04T03:00:30.972Z,14.10
2018-05-04T03:01:04.273Z,14.10
2018-05-04T03:01:37.543Z,14.10
2018-05-04T03:02:10.819Z,14.10
2018-05-04T03:02:44.828Z,14.10
2018-05-04T03:03:18.096Z,14.10
2018-05-04T03:03:51.377Z,14.10
2018-05-04T03:04:24.648Z,14.20
2018-05-04T03:04:57.914Z,14.20
2018-05-04T03:05:31.202Z,14.20
2018-05-04T03:06:04.453Z,14.20
2018-05-04T03:06:38.475Z,14.20
2018-05-04T03:07:11.757Z,14.20
2018-05-04T03:07:45.017Z,14.10
2018-05-04T03:08:18.272Z,14.10
2018-05-04T03:08:51.565Z,14.00
2018-05-04T03:09:25.600Z,14.10
2018-05-04T03:09:58.844Z,14.00
2018-05-04T03:10:32.131Z,14.00
2018-05-04T03:11:06.170Z,14.00
2018-05-04T03:11:39.443Z,14.00
2018-05-04T03:12:13.485Z,14.10
2018-05-04T03:12:46.741Z,14.10
2018-05-04T03:13:20.850Z,14.00
2018-05-04T03:13:54.884Z,14.00
2018-05-04T03:14:28.931Z,14.00
2018-05-04T03:15:02.208Z,14.00
2018-05-04T03:15:35.476Z,14.00
2018-05-04T03:16:08.743Z,14.10
2018-05-04T03:16:42.413Z,14.00
2018-05-04T03:17:15.635Z,14.10
2018-05-04T03:17:48.973Z,14.00
2018-05-04T03:18:22.264Z,14.00
2018-05-04T03:18:55.520Z,14.00
2018-05-04T03:19:29.545Z,14.00
2018-05-04T03:20:02.827Z,14.00
2018-05-04T03:20:36.095Z,14.00
2018-05-04T03:21:10.133Z,14.00
2018-05-04T03:21:43.416Z,14.10
2018-05-04T03:22:17.431Z,14.00
2018-05-04T03:22:50.717Z,14.00
2018-05-04T03:23:23.989Z,14.00
2018-05-04T03:23:57.244Z,14.00
2018-05-04T03:24:30.515Z,13.90
2018-05-04T03:25:03.768Z,13.90
2018-05-04T03:25:37.047Z,13.90
2018-05-04T03:26:10.324Z,14.00
2018-05-04T03:26:44.340Z,14.00
2018-05-04T03:27:17.599Z,14.00
2018-05-04T03:27:51.621Z,13.90
2018-05-04T03:28:24.884Z,13.90
2018-05-04T03:28:58.140Z,13.90
2018-05-04T03:29:31.404Z,13.90
2018-05-04T03:30:04.690Z,13.90
2018-05-04T03:30:37.946Z,13.90
2018-05-04T03:31:11.233Z,13.90
2018-05-04T03:31:44.480Z,13.90
2018-05-04T03:32:17.737Z,13.90
2018-05-04T03:32:51.773Z,14.00
2018-05-04T03:33:25.029Z,13.90
2018-05-04T03:33:58.296Z,13.90
2018-05-04T03:34:32.329Z,13.90
2018-05-04T03:35:05.606Z,13.90
2018-05-04T03:35:39.637Z,13.90
2018-05-04T03:36:12.915Z,13.90
2018-05-04T03:36:46.181Z,14.00
2018-05-04T03:37:19.898Z,13.90
2018-05-04T03:37:53.160Z,13.90
2018-05-04T03:38:26.437Z,13.90
2018-05-04T03:38:59.705Z,13.90
2018-05-04T03:39:33.745Z,13.80
2018-05-04T03:40:07.774Z,13.80
2018-05-04T03:40:41.056Z,13.80
2018-05-04T03:41:14.341Z,13.80
2018-05-04T03:41:47.607Z,13.90
2018-05-04T03:42:20.872Z,13.90
2018-05-04T03:42:54.957Z,13.90
2018-05-04T03:43:28.185Z,13.90
2018-05-04T03:44:01.445Z,13.90
2018-05-04T03:44:35.472Z,13.90
2018-05-04T03:45:08.741Z,13.90
2018-05-04T03:45:42.005Z,13.90
2018-05-04T03:46:15.284Z,13.90
2018-05-04T03:46:48.557Z,13.90
2018-05-04T03:47:22.585Z,13.80
2018-05-04T03:47:55.852Z,13.80
2018-05-04T03:48:29.147Z,13.80
2018-05-04T03:49:02.417Z,13.80
2018-05-04T03:49:36.462Z,13.80
2018-05-04T03:50:09.737Z,13.80
2018-05-04T03:50:43.013Z,13.80
2018-05-04T03:51:16.276Z,13.70
2018-05-04T03:51:49.541Z,13.80
2018-05-04T03:52:22.806Z,13.80
2018-05-04T03:52:56.067Z,13.80
2018-05-04T03:53:29.356Z,13.80
2018-05-04T03:54:02.630Z,13.80
2018-05-04T03:54:35.898Z,13.80
2018-05-04T03:55:09.931Z,13.80
2018-05-04T03:55:43.212Z,13.70
2018-05-04T03:56:16.471Z,13.70
2018-05-04T03:56:49.760Z,13.70
2018-05-04T03:57:34.988Z,13.70
2018-05-04T03:58:20.104Z,13.70
2018-05-04T03:59:05.165Z,13.70
2018-05-04T03:59:51.135Z,13.70
2018-05-04T04:00:36.141Z,13.60
2018-05-04T04:01:22.028Z,13.70
2018-05-04T04:02:07.094Z,13.70
2018-05-04T04:02:52.208Z,13.70
2018-05-04T04:03:37.297Z,13.60
2018-05-04T04:04:12.801Z,13.60
2018-05-04T04:04:46.097Z,13.50
2018-05-04T04:05:19.375Z,13.60
2018-05-04T04:05:52.649Z,13.60
2018-05-04T04:06:26.023Z,13.50
2018-05-04T04:06:59.302Z,13.50
2018-05-04T04:07:32.569Z,13.50
2018-05-04T04:08:06.600Z,13.40
2018-05-04T04:08:39.860Z,13.40
2018-05-04T04:09:13.121Z,13.50
2018-05-04T04:09:46.390Z,13.50
2018-05-04T04:10:19.648Z,13.50
2018-05-04T04:10:53.686Z,13.40
2018-05-04T04:11:26.978Z,13.40
2018-05-04T04:12:00.241Z,13.40
2018-05-04T04:12:33.816Z,13.40
2018-05-04T04:13:06.997Z,13.40
2018-05-04T04:13:40.269Z,13.40
2018-05-04T04:14:13.532Z,13.40
2018-05-04T04:14:46.801Z,13.40
2018-05-04T04:15:20.069Z,13.40
2018-05-04T04:15:54.113Z,13.40
2018-05-04T04:16:27.372Z,13.40
2018-05-04T04:17:00.646Z,13.40
2018-05-04T04:17:33.921Z,13.40
2018-05-04T04:18:07.173Z,13.40
2018-05-04T04:18:40.468Z,13.40
2018-05-04T04:19:13.736Z,13.40
2018-05-04T04:19:47.476Z,13.40
2018-05-04T04:20:20.748Z,13.50
2018-05-04T04:20:53.997Z,13.40
2018-05-04T04:21:28.037Z,13.40
2018-05-04T04:22:01.312Z,13.40
2018-05-04T04:22:34.564Z,13.40
2018-05-04T04:23:07.832Z,13.50
2018-05-04T04:23:41.861Z,13.40
2018-05-04T04:24:15.112Z,13.40
2018-05-04T04:24:48.380Z,13.40
2018-05-04T04:25:22.411Z,13.40
2018-05-04T04:25:55.669Z,13.40
2018-05-04T04:26:28.929Z,13.40
2018-05-04T04:27:02.222Z,13.40
2018-05-04T04:27:36.252Z,13.40
2018-05-04T04:28:09.522Z,13.40
2018-05-04T04:28:43.549Z,13.40
2018-05-04T04:29:16.803Z,13.40
2018-05-04T04:29:50.073Z,13.40
2018-05-04T04:30:24.102Z,13.40
2018-05-04T04:30:57.376Z,13.40
2018-05-04T04:31:30.635Z,13.40
2018-05-04T04:32:03.939Z,13.40
2018-05-04T04:32:37.196Z,13.40
2018-05-04T04:33:10.465Z,13.30
2018-05-04T04:33:43.752Z,13.40
2018-05-04T04:34:17.012Z,13.40
2018-05-04T04:34:50.280Z,13.40
2018-05-04T04:35:23.544Z,13.40
2018-05-04T04:35:56.881Z,13.30
2018-05-04T04:36:30.152Z,13.40
2018-05-04T04:37:04.210Z,13.40
2018-05-04T04:37:37.477Z,13.30
2018-05-04T04:38:10.737Z,13.40
2018-05-04T04:38:44.014Z,13.40
2018-05-04T04:39:17.264Z,13.40
2018-05-04T04:39:50.542Z,13.40
2018-05-04T04:40:23.788Z,13.40
2018-05-04T04:40:57.052Z,13.40
2018-05-04T04:41:30.561Z,13.40
2018-05-04T04:42:03.929Z,13.40
2018-05-04T04:42:37.229Z,13.40
2018-05-04T04:43:10.495Z,13.40
2018-05-04T04:43:45.268Z,13.40
2018-05-04T04:44:18.577Z,13.30
2018-05-04T04:44:51.825Z,13.40
2018-05-04T04:45:25.125Z,13.30
2018-05-04T04:45:58.386Z,13.40
2018-05-04T04:46:31.670Z,13.40
2018-05-04T04:47:04.921Z,13.40
2018-05-04T04:47:39.680Z,13.40
2018-05-04T04:48:12.952Z,13.30
2018-05-04T04:48:46.245Z,13.40
2018-05-04T04:49:19.497Z,13.40
2018-05-04T04:49:52.752Z,13.40
2018-05-04T04:50:26.038Z,13.40
2018-05-04T04:51:00.321Z,13.50
2018-05-04T04:51:33.574Z,13.40
2018-05-04T04:52:07.604Z,13.50
2018-05-04T04:52:40.896Z,13.40
2018-05-04T04:53:14.941Z,13.40
2018-05-04T04:53:48.181Z,13.40
2018-05-04T04:54:22.217Z,13.50
2018-05-04T04:54:55.487Z,13.40
2018-05-04T04:55:28.733Z,13.50
2018-05-04T04:56:02.759Z,13.50
2018-05-04T04:56:36.017Z,13.50
2018-05-04T04:57:10.082Z,13.40
2018-05-04T04:57:43.352Z,13.40
2018-05-04T04:58:16.612Z,13.40
2018-05-04T04:58:49.879Z,13.40
2018-05-04T04:59:23.161Z,13.40
2018-05-04T04:59:56.440Z,13.40
2018-05-04T05:00:29.693Z,13.40
2018-05-04T05:01:03.720Z,13.50
2018-05-04T05:01:37.644Z,13.50
2018-05-04T05:02:11.925Z,13.50
2018-05-04T05:02:45.411Z,13.40
2018-05-04T05:03:18.675Z,13.40
2018-05-04T05:03:51.955Z,13.50
2018-05-04T05:04:25.215Z,13.50
2018-05-04T05:04:59.268Z,13.60
2018-05-04T05:05:32.532Z,13.60
2018-05-04T05:06:05.797Z,13.60
2018-05-04T05:06:39.071Z,13.60
2018-05-04T05:07:12.348Z,13.60
2018-05-04T05:07:45.617Z,13.60
2018-05-04T05:08:19.642Z,13.60
2018-05-04T05:08:52.905Z,13.60
2018-05-04T05:09:26.162Z,13.60
2018-05-04T05:10:00.184Z,13.60
2018-05-04T05:10:33.460Z,13.60
2018-05-04T05:11:06.718Z,13.60
2018-05-04T05:11:40.746Z,13.70
2018-05-04T05:12:14.031Z,13.70
2018-05-04T05:12:47.303Z,13.70
2018-05-04T05:13:20.560Z,13.70
2018-05-04T05:13:54.612Z,13.80
2018-05-04T05:14:27.885Z,13.80
2018-05-04T05:15:01.159Z,13.80
2018-05-04T05:15:34.413Z,13.80
2018-05-04T05:16:07.837Z,13.80
2018-05-04T05:16:41.097Z,13.80
2018-05-04T05:17:14.376Z,13.90
2018-05-04T05:17:47.654Z,13.90
2018-05-04T05:18:20.913Z,13.90
2018-05-04T05:18:54.175Z,13.90
2018-05-04T05:19:28.204Z,13.90
2018-05-04T05:20:01.481Z,13.90
2018-05-04T05:20:34.727Z,13.90
2018-05-04T05:21:07.995Z,13.90
2018-05-04T05:21:41.268Z,13.90
2018-05-04T05:22:15.367Z,14.00
2018-05-04T05:22:48.698Z,14.00
2018-05-04T05:23:21.966Z,14.00
2018-05-04T05:23:55.993Z,13.80
2018-05-04T05:24:29.272Z,13.80
2018-05-04T05:25:02.529Z,13.90
2018-05-04T05:25:35.805Z,13.90
2018-05-04T05:26:09.077Z,13.80
2018-05-04T05:26:43.138Z,13.80
2018-05-04T05:27:16.353Z,13.80
2018-05-04T05:27:49.619Z,13.90
2018-05-04T05:28:22.882Z,13.90
2018-05-04T05:28:56.162Z,13.90
2018-05-04T05:29:29.492Z,14.00
2018-05-04T05:30:02.756Z,14.00
2018-05-04T05:30:36.787Z,14.00
2018-05-04T05:31:10.048Z,14.00
2018-05-04T05:31:43.308Z,14.00
2018-05-04T05:32:17.356Z,14.10
2018-05-04T05:32:50.641Z,14.10
2018-05-04T05:33:23.905Z,14.10
2018-05-04T05:33:57.177Z,14.10
2018-05-04T05:34:30.432Z,14.10
2018-05-04T05:35:04.476Z,14.20
2018-05-04T05:35:37.741Z,14.20
2018-05-04T05:36:11.000Z,14.10
2018-05-04T05:36:45.051Z,14.00
2018-05-04T05:37:18.322Z,14.00
2018-05-04T05:37:51.601Z,14.00
2018-05-04T05:38:24.872Z,14.00
2018-05-04T05:38:58.150Z,14.00
2018-05-04T05:39:32.192Z,14.00
2018-05-04T05:40:06.221Z,14.10
2018-05-04T05:40:39.489Z,14.00
2018-05-04T05:41:13.531Z,14.10
2018-05-04T05:41:46.788Z,14.10
2018-05-04T05:42:20.308Z,14.10
2018-05-04T05:42:53.594Z,14.10
2018-05-04T05:43:27.388Z,14.10
2018-05-04T05:44:00.652Z,14.10
2018-05-04T05:44:33.931Z,14.10
2018-05-04T05:45:07.195Z,14.10
2018-05-04T05:45:40.448Z,14.10
2018-05-04T05:46:13.706Z,14.10
2018-05-04T05:46:47.743Z,14.20
2018-05-04T05:47:21.012Z,14.20
2018-05-04T05:47:54.292Z,14.30
2018-05-04T05:48:28.314Z,14.30
2018-05-04T05:49:01.572Z,14.30
2018-05-04T05:49:34.841Z,14.30
2018-05-04T05:50:08.876Z,14.30
2018-05-04T05:50:42.154Z,14.30
2018-05-04T05:51:15.397Z,14.30
2018-05-04T05:51:48.671Z,14.30
2018-05-04T05:52:22.698Z,14.40
2018-05-04T05:52:55.984Z,14.40
2018-05-04T05:53:29.238Z,14.40
2018-05-04T05:54:02.508Z,14.40
2018-05-04T05:54:36.614Z,14.50
2018-05-04T05:55:09.813Z,14.50
2018-05-04T05:55:43.072Z,14.50
2018-05-04T05:56:17.108Z,14.60
2018-05-04T05:56:50.396Z,14.50
2018-05-04T05:57:24.424Z,14.60
2018-05-04T05:57:57.753Z,14.60
2018-05-04T05:58:30.981Z,14.70
2018-05-04T05:59:04.236Z,14.70
2018-05-04T05:59:37.501Z,14.70
2018-05-04T06:00:10.760Z,14.70
2018-05-04T06:00:44.020Z,14.80
2018-05-04T06:01:18.060Z,14.80
2018-05-04T06:01:51.328Z,14.70
2018-05-04T06:02:24.625Z,14.80
2018-05-04T06:02:57.876Z,14.80
2018-05-04T06:03:31.135Z,14.70
2018-05-04T06:04:04.628Z,14.80
2018-05-04T06:04:37.794Z,14.80
2018-05-04T06:05:11.874Z,14.90
2018-05-04T06:05:45.129Z,14.90
2018-05-04T06:06:18.395Z,15.00
2018-05-04T06:06:51.668Z,15.10
2018-05-04T06:07:24.923Z,15.10
2018-05-04T06:07:58.976Z,15.20
2018-05-04T06:08:32.309Z,15.20
2018-05-04T06:09:05.573Z,15.30
2018-05-04T06:09:39.596Z,15.40
2018-05-04T06:10:12.853Z,15.40
2018-05-04T06:10:46.895Z,15.50
2018-05-04T06:11:20.161Z,15.50
2018-05-04T06:11:53.434Z,15.50
2018-05-04T06:12:27.478Z,15.60
2018-05-04T06:13:00.764Z,15.60
2018-05-04T06:13:34.024Z,15.60
2018-05-04T06:14:07.293Z,15.60
2018-05-04T06:14:40.559Z,15.70
2018-05-04T06:15:14.590Z,15.70
2018-05-04T06:15:47.840Z,15.70
2018-05-04T06:16:21.108Z,15.80
2018-05-04T06:16:54.363Z,15.80
2018-05-04T06:17:27.636Z,15.90
2018-05-04T06:18:02.018Z,16.00
2018-05-04T06:18:35.263Z,16.00
2018-05-04T06:19:08.525Z,16.10
2018-05-04T06:19:41.795Z,16.10
2018-05-04T06:20:15.809Z,16.20
2018-05-04T06:20:49.072Z,16.20
2018-05-04T06:21:23.100Z,16.20
2018-05-04T06:21:56.365Z,16.20
2018-05-04T06:22:29.635Z,16.30
2018-05-04T06:23:03.685Z,16.40
2018-05-04T06:23:37.717Z,16.40
2018-05-04T06:24:10.972Z,16.40
2018-05-04T06:24:44.253Z,16.40
2018-05-04T06:25:17.537Z,16.50
2018-05-04T06:25:50.805Z,16.50
2018-05-04T06:26:24.083Z,16.50
2018-05-04T06:26:57.341Z,16.60
2018-05-04T06:27:30.605Z,16.60
2018-05-04T06:28:03.890Z,16.60
2018-05-04T06:28:37.158Z,16.60
2018-05-04T06:29:10.425Z,16.60
2018-05-04T06:29:44.455Z,16.70
2018-05-04T06:30:17.711Z,16.70
2018-05-04T06:30:50.984Z,16.70
2018-05-04T06:31:24.256Z,16.80
2018-05-04T06:31:58.293Z,16.90
2018-05-04T06:32:31.562Z,16.90
2018-05-04T06:33:04.845Z,16.90
2018-05-04T06:33:38.104Z,17.00
2018-05-04T06:34:11.393Z,17.00
2018-05-04T06:34:44.667Z,17.00
2018-05-04T06:35:18.688Z,17.10
2018-05-04T06:35:51.945Z,17.10
2018-05-04T06:36:25.217Z,17.20
2018-05-04T06:36:58.477Z,17.20
2018-05-04T06:37:31.750Z,17.20
2018-05-04T06:38:05.022Z,17.20
2018-05-04T06:38:38.599Z,17.20
2018-05-04T06:39:11.883Z,17.30
2018-05-04T06:39:45.171Z,17.30
2018-05-04T06:40:18.413Z,17.40
2018-05-04T06:40:51.683Z,17.40
2018-05-04T06:41:24.957Z,17.50
2018-05-04T06:41:58.971Z,17.50
2018-05-04T06:42:32.245Z,17.50
2018-05-04T06:43:05.509Z,17.50
2018-05-04T06:43:38.788Z,17.50
2018-05-04T06:44:12.061Z,17.50
2018-05-04T06:44:46.125Z,17.50
2018-05-04T06:45:19.397Z,17.50
2018-05-04T06:45:52.698Z,17.60
2018-05-04T06:46:27.457Z,17.50
2018-05-04T06:47:00.756Z,17.50
2018-05-04T06:47:34.266Z,17.60
2018-05-04T06:48:07.542Z,17.60
2018-05-04T06:48:40.865Z,17.60
2018-05-04T06:49:14.104Z,17.50
2018-05-04T06:49:47.389Z,17.50
2018-05-04T06:50:20.653Z,17.50
2018-05-04T06:50:53.917Z,17.50
2018-05-04T06:51:27.192Z,17.50
2018-05-04T06:52:00.457Z,17.50
2018-05-04T06:52:33.728Z,17.60
2018-05-04T06:53:06.985Z,17.60
2018-05-04T06:53:40.268Z,17.50
2018-05-04T06:54:14.291Z,17.50
2018-05-04T06:54:47.552Z,17.50
2018-05-04T06:55:21.594Z,17.60
2018-05-04T06:55:54.859Z,17.60
2018-05-04T06:56:28.116Z,17.60
2018-05-04T06:57:02.139Z,17.70
2018-05-04T06:57:35.408Z,17.70
2018-05-04T06:58:08.672Z,17.70
2018-05-04T06:58:42.713Z,17.70
2018-05-04T06:59:15.991Z,17.70
2018-05-04T06:59:49.278Z,17.70
2018-05-04T07:00:22.536Z,17.70
2018-05-04T07:00:55.797Z,17.70
2018-05-04T07:01:29.057Z,17.70
2018-05-04T07:02:02.361Z,17.70
2018-05-04T07:02:35.626Z,17.70
2018-05-04T07:03:08.892Z,17.80
2018-05-04T07:03:42.168Z,17.80
2018-05-04T07:04:15.433Z,17.80
2018-05-04T07:04:48.712Z,17.80
2018-05-04T07:05:21.972Z,17.80
2018-05-04T07:05:55.233Z,17.90
2018-05-04T07:06:28.562Z,17.90
2018-05-04T07:07:01.821Z,17.90
2018-05-04T07:07:35.096Z,17.80
2018-05-04T07:08:09.149Z,17.90
2018-05-04T07:08:43.206Z,17.90
2018-05-04T07:09:16.466Z,17.90
2018-05-04T07:09:49.727Z,18.00
2018-05-04T07:10:23.064Z,18.00
2018-05-04T07:10:56.267Z,18.10
2018-05-04T07:11:30.300Z,18.20
2018-05-04T07:12:03.589Z,18.20
2018-05-04T07:12:36.860Z,18.20